sensor_id;sensor_type;location;lat;lon;timestamp;P1;durP1;ratioP1;P2;durP2;ratioP2
7783;SDS011;19359;51.402;6.778;2022-12-18T00:00:39;16.67;;;9.48;;
7783;SDS011;19359;51.402;6.778;2022-12-18T00:03:06;13.25;;;7.13;;
7783;SDS011;19359;51.402;6.778;2022-12-18T00:05:32;14.15;;;7.78;;
7783;SDS011;19359;51.402;6.778;2022-12-18T00:07:59;18.23;;;8.35;;
7783;SDS011;19359;51.402;6.778;2022-12-18T00:10:28;13.98;;;7.50;;
7783;SDS011;19359;51.402;6.778;2022-12-18T00:12:55;13.77;;;7.03;;
7783;SDS011;19359;51.402;6.778;2022-12-18T00:15:22;18.75;;;7.88;;
7783;SDS011;19359;51.402;6.778;2022-12-18T00:17:48;16.30;;;8.50;;
7783;SDS011;19359;51.402;6.778;2022-12-18T00:20:15;18.38;;;7.28;;
7783;SDS011;19359;51.402;6.778;2022-12-18T00:22:46;12.00;;;5.78;;
7783;SDS011;19359;51.402;6.778;2022-12-18T00:25:13;17.30;;;7.65;;
7783;SDS011;19359;51.402;6.778;2022-12-18T00:27:41;16.55;;;7.20;;
7783;SDS011;19359;51.402;6.778;2022-12-18T00:30:08;16.70;;;5.95;;
7783;SDS011;19359;51.402;6.778;2022-12-18T00:32:36;13.20;;;6.43;;
7783;SDS011;19359;51.402;6.778;2022-12-18T00:35:03;14.32;;;7.32;;
7783;SDS011;19359;51.402;6.778;2022-12-18T00:37:30;11.98;;;6.38;;
7783;SDS011;19359;51.402;6.778;2022-12-18T00:39:59;11.68;;;5.85;;
7783;SDS011;19359;51.402;6.778;2022-12-18T00:42:26;12.82;;;5.07;;
7783;SDS011;19359;51.402;6.778;2022-12-18T00:45:11;9.85;;;4.53;;
7783;SDS011;19359;51.402;6.778;2022-12-18T00:47:38;7.10;;;4.68;;
7783;SDS011;19359;51.402;6.778;2022-12-18T00:50:06;7.38;;;4.38;;
7783;SDS011;19359;51.402;6.778;2022-12-18T00:52:34;11.15;;;4.65;;
7783;SDS011;19359;51.402;6.778;2022-12-18T00:55:00;9.77;;;5.03;;
7783;SDS011;19359;51.402;6.778;2022-12-18T00:57:27;8.82;;;4.07;;
7783;SDS011;19359;51.402;6.778;2022-12-18T00:59:54;11.52;;;5.57;;
7783;SDS011;19359;51.402;6.778;2022-12-18T01:02:22;15.88;;;6.05;;
7783;SDS011;19359;51.402;6.778;2022-12-18T01:04:48;10.40;;;5.80;;
7783;SDS011;19359;51.402;6.778;2022-12-18T01:07:15;9.27;;;5.78;;
7783;SDS011;19359;51.402;6.778;2022-12-18T01:09:42;11.00;;;5.65;;
7783;SDS011;19359;51.402;6.778;2022-12-18T01:12:09;9.70;;;4.90;;
7783;SDS011;19359;51.402;6.778;2022-12-18T01:14:35;10.18;;;4.78;;
7783;SDS011;19359;51.402;6.778;2022-12-18T01:17:02;7.13;;;5.07;;
7783;SDS011;19359;51.402;6.778;2022-12-18T01:19:31;9.15;;;5.38;;
7783;SDS011;19359;51.402;6.778;2022-12-18T01:21:58;6.28;;;4.40;;
7783;SDS011;19359;51.402;6.778;2022-12-18T01:24:25;10.40;;;5.43;;
7783;SDS011;19359;51.402;6.778;2022-12-18T01:26:51;7.35;;;5.53;;
7783;SDS011;19359;51.402;6.778;2022-12-18T01:29:18;10.95;;;5.60;;
7783;SDS011;19359;51.402;6.778;2022-12-18T01:31:45;11.43;;;5.03;;
7783;SDS011;19359;51.402;6.778;2022-12-18T01:34:12;10.95;;;4.50;;
7783;SDS011;19359;51.402;6.778;2022-12-18T01:36:40;9.15;;;5.35;;
7783;SDS011;19359;51.402;6.778;2022-12-18T01:39:08;11.95;;;4.50;;
7783;SDS011;19359;51.402;6.778;2022-12-18T01:41:37;5.03;;;4.22;;
7783;SDS011;19359;51.402;6.778;2022-12-18T01:47:35;7.70;;;4.72;;
7783;SDS011;19359;51.402;6.778;2022-12-18T01:50:06;5.75;;;4.00;;
7783;SDS011;19359;51.402;6.778;2022-12-18T01:52:37;9.90;;;4.15;;
7783;SDS011;19359;51.402;6.778;2022-12-18T01:55:07;6.45;;;4.28;;
7783;SDS011;19359;51.402;6.778;2022-12-18T01:57:35;8.93;;;4.63;;
7783;SDS011;19359;51.402;6.778;2022-12-18T02:00:04;6.03;;;4.30;;
7783;SDS011;19359;51.402;6.778;2022-12-18T02:02:33;11.15;;;5.28;;
7783;SDS011;19359;51.402;6.778;2022-12-18T02:05:00;10.48;;;4.80;;
7783;SDS011;19359;51.402;6.778;2022-12-18T02:10:54;8.75;;;3.53;;
7783;SDS011;19359;51.402;6.778;2022-12-18T02:13:32;7.10;;;4.20;;
7783;SDS011;19359;51.402;6.778;2022-12-18T02:16:05;4.57;;;3.80;;
7783;SDS011;19359;51.402;6.778;2022-12-18T02:18:37;5.90;;;4.00;;
7783;SDS011;19359;51.402;6.778;2022-12-18T02:21:08;4.68;;;3.90;;
7783;SDS011;19359;51.402;6.778;2022-12-18T02:23:47;5.10;;;3.60;;
7783;SDS011;19359;51.402;6.778;2022-12-18T02:26:25;6.93;;;4.18;;
7783;SDS011;19359;51.402;6.778;2022-12-18T02:28:55;8.38;;;4.05;;
7783;SDS011;19359;51.402;6.778;2022-12-18T02:31:26;6.72;;;3.78;;
7783;SDS011;19359;51.402;6.778;2022-12-18T02:33:56;8.35;;;3.95;;
7783;SDS011;19359;51.402;6.778;2022-12-18T02:36:27;12.63;;;4.70;;
7783;SDS011;19359;51.402;6.778;2022-12-18T02:38:55;8.07;;;4.75;;
7783;SDS011;19359;51.402;6.778;2022-12-18T02:41:22;7.03;;;4.05;;
7783;SDS011;19359;51.402;6.778;2022-12-18T02:43:53;6.40;;;3.58;;
7783;SDS011;19359;51.402;6.778;2022-12-18T02:46:27;6.10;;;4.35;;
7783;SDS011;19359;51.402;6.778;2022-12-18T02:49:10;7.40;;;3.33;;
7783;SDS011;19359;51.402;6.778;2022-12-18T02:51:49;8.68;;;3.85;;
7783;SDS011;19359;51.402;6.778;2022-12-18T02:54:29;5.95;;;3.63;;
7783;SDS011;19359;51.402;6.778;2022-12-18T02:57:08;6.53;;;4.70;;
7783;SDS011;19359;51.402;6.778;2022-12-18T02:59:41;5.03;;;4.47;;
7783;SDS011;19359;51.402;6.778;2022-12-18T03:02:18;4.60;;;3.50;;
7783;SDS011;19359;51.402;6.778;2022-12-18T03:04:49;6.57;;;4.32;;
7783;SDS011;19359;51.402;6.778;2022-12-18T03:07:20;5.00;;;4.18;;
7783;SDS011;19359;51.402;6.778;2022-12-18T03:09:52;10.52;;;5.05;;
7783;SDS011;19359;51.402;6.778;2022-12-18T03:12:23;5.50;;;4.15;;
7783;SDS011;19359;51.402;6.778;2022-12-18T03:14:56;11.45;;;4.50;;
7783;SDS011;19359;51.402;6.778;2022-12-18T03:17:30;8.02;;;4.80;;
7783;SDS011;19359;51.402;6.778;2022-12-18T03:19:59;6.90;;;3.95;;
7783;SDS011;19359;51.402;6.778;2022-12-18T03:22:32;8.43;;;4.03;;
7783;SDS011;19359;51.402;6.778;2022-12-18T03:25:00;5.82;;;4.63;;
7783;SDS011;19359;51.402;6.778;2022-12-18T03:27:31;7.45;;;4.28;;
7783;SDS011;19359;51.402;6.778;2022-12-18T03:30:02;4.90;;;3.72;;
7783;SDS011;19359;51.402;6.778;2022-12-18T03:32:33;5.93;;;3.60;;
7783;SDS011;19359;51.402;6.778;2022-12-18T03:35:04;9.32;;;4.35;;
7783;SDS011;19359;51.402;6.778;2022-12-18T03:37:33;10.15;;;4.95;;
7783;SDS011;19359;51.402;6.778;2022-12-18T03:40:01;7.05;;;4.80;;
7783;SDS011;19359;51.402;6.778;2022-12-18T03:42:28;4.65;;;3.90;;
7783;SDS011;19359;51.402;6.778;2022-12-18T03:45:05;6.18;;;4.80;;
7783;SDS011;19359;51.402;6.778;2022-12-18T03:47:38;7.25;;;4.60;;
7783;SDS011;19359;51.402;6.778;2022-12-18T03:50:12;10.45;;;4.70;;
7783;SDS011;19359;51.402;6.778;2022-12-18T03:52:46;8.05;;;4.22;;
7783;SDS011;19359;51.402;6.778;2022-12-18T03:55:18;7.53;;;4.57;;
7783;SDS011;19359;51.402;6.778;2022-12-18T03:57:48;10.52;;;3.83;;
7783;SDS011;19359;51.402;6.778;2022-12-18T04:00:17;7.97;;;4.60;;
7783;SDS011;19359;51.402;6.778;2022-12-18T04:02:47;6.78;;;4.10;;
7783;SDS011;19359;51.402;6.778;2022-12-18T04:05:16;6.72;;;4.00;;
7783;SDS011;19359;51.402;6.778;2022-12-18T04:07:44;6.93;;;4.30;;
7783;SDS011;19359;51.402;6.778;2022-12-18T04:10:12;7.25;;;4.30;;
7783;SDS011;19359;51.402;6.778;2022-12-18T04:12:40;8.52;;;4.30;;
7783;SDS011;19359;51.402;6.778;2022-12-18T04:15:09;6.70;;;5.13;;
7783;SDS011;19359;51.402;6.778;2022-12-18T04:17:37;5.20;;;4.68;;
7783;SDS011;19359;51.402;6.778;2022-12-18T04:20:05;5.10;;;4.43;;
7783;SDS011;19359;51.402;6.778;2022-12-18T04:22:32;7.53;;;5.00;;
7783;SDS011;19359;51.402;6.778;2022-12-18T04:24:59;6.32;;;3.78;;
7783;SDS011;19359;51.402;6.778;2022-12-18T04:27:25;9.50;;;4.68;;
7783;SDS011;19359;51.402;6.778;2022-12-18T04:29:52;10.60;;;4.43;;
7783;SDS011;19359;51.402;6.778;2022-12-18T04:32:20;5.80;;;4.47;;
7783;SDS011;19359;51.402;6.778;2022-12-18T04:34:47;8.02;;;4.25;;
7783;SDS011;19359;51.402;6.778;2022-12-18T04:37:14;4.93;;;3.72;;
7783;SDS011;19359;51.402;6.778;2022-12-18T04:39:41;10.32;;;4.30;;
7783;SDS011;19359;51.402;6.778;2022-12-18T04:42:07;5.63;;;4.28;;
7783;SDS011;19359;51.402;6.778;2022-12-18T04:44:34;5.68;;;4.15;;
7783;SDS011;19359;51.402;6.778;2022-12-18T04:47:02;4.60;;;3.60;;
7783;SDS011;19359;51.402;6.778;2022-12-18T04:49:30;9.30;;;3.97;;
7783;SDS011;19359;51.402;6.778;2022-12-18T04:51:56;6.47;;;4.15;;
7783;SDS011;19359;51.402;6.778;2022-12-18T04:54:23;8.40;;;3.58;;
7783;SDS011;19359;51.402;6.778;2022-12-18T04:56:50;6.55;;;3.55;;
7783;SDS011;19359;51.402;6.778;2022-12-18T04:59:17;7.60;;;4.35;;
7783;SDS011;19359;51.402;6.778;2022-12-18T05:01:43;5.13;;;3.78;;
7783;SDS011;19359;51.402;6.778;2022-12-18T05:04:10;4.20;;;3.78;;
7783;SDS011;19359;51.402;6.778;2022-12-18T05:06:38;5.63;;;3.50;;
7783;SDS011;19359;51.402;6.778;2022-12-18T05:09:06;7.03;;;4.00;;
7783;SDS011;19359;51.402;6.778;2022-12-18T05:11:33;6.57;;;3.58;;
7783;SDS011;19359;51.402;6.778;2022-12-18T05:14:02;4.72;;;3.90;;
7783;SDS011;19359;51.402;6.778;2022-12-18T05:16:29;4.72;;;3.75;;
7783;SDS011;19359;51.402;6.778;2022-12-18T05:18:56;6.32;;;3.45;;
7783;SDS011;19359;51.402;6.778;2022-12-18T05:21:23;6.72;;;2.97;;
7783;SDS011;19359;51.402;6.778;2022-12-18T05:23:51;7.20;;;3.47;;
7783;SDS011;19359;51.402;6.778;2022-12-18T05:26:18;6.45;;;3.50;;
7783;SDS011;19359;51.402;6.778;2022-12-18T05:28:45;4.60;;;3.05;;
7783;SDS011;19359;51.402;6.778;2022-12-18T05:31:12;6.93;;;3.70;;
7783;SDS011;19359;51.402;6.778;2022-12-18T05:33:39;8.27;;;3.90;;
7783;SDS011;19359;51.402;6.778;2022-12-18T05:36:06;4.82;;;3.08;;
7783;SDS011;19359;51.402;6.778;2022-12-18T05:38:34;11.73;;;4.53;;
7783;SDS011;19359;51.402;6.778;2022-12-18T05:41:03;5.38;;;4.30;;
7783;SDS011;19359;51.402;6.778;2022-12-18T05:43:31;7.05;;;3.95;;
7783;SDS011;19359;51.402;6.778;2022-12-18T05:46:03;5.68;;;3.70;;
7783;SDS011;19359;51.402;6.778;2022-12-18T05:48:31;5.22;;;3.47;;
7783;SDS011;19359;51.402;6.778;2022-12-18T05:51:02;4.65;;;3.13;;
7783;SDS011;19359;51.402;6.778;2022-12-18T05:53:30;4.35;;;3.67;;
7783;SDS011;19359;51.402;6.778;2022-12-18T05:55:59;5.20;;;2.95;;
7783;SDS011;19359;51.402;6.778;2022-12-18T05:58:28;7.18;;;3.83;;
7783;SDS011;19359;51.402;6.778;2022-12-18T06:00:55;6.78;;;3.22;;
7783;SDS011;19359;51.402;6.778;2022-12-18T06:03:22;6.18;;;3.40;;
7783;SDS011;19359;51.402;6.778;2022-12-18T06:05:49;3.38;;;3.13;;
7783;SDS011;19359;51.402;6.778;2022-12-18T06:08:16;5.65;;;3.83;;
7783;SDS011;19359;51.402;6.778;2022-12-18T06:10:48;9.02;;;3.20;;
7783;SDS011;19359;51.402;6.778;2022-12-18T06:13:17;7.43;;;3.63;;
7783;SDS011;19359;51.402;6.778;2022-12-18T06:15:45;3.50;;;3.20;;
7783;SDS011;19359;51.402;6.778;2022-12-18T06:18:12;5.25;;;3.40;;
7783;SDS011;19359;51.402;6.778;2022-12-18T06:20:39;6.22;;;3.90;;
7783;SDS011;19359;51.402;6.778;2022-12-18T06:23:06;4.85;;;2.95;;
7783;SDS011;19359;51.402;6.778;2022-12-18T06:25:36;3.83;;;3.15;;
7783;SDS011;19359;51.402;6.778;2022-12-18T06:28:04;4.93;;;3.40;;
7783;SDS011;19359;51.402;6.778;2022-12-18T06:30:30;9.77;;;4.78;;
7783;SDS011;19359;51.402;6.778;2022-12-18T06:32:58;5.68;;;4.03;;
7783;SDS011;19359;51.402;6.778;2022-12-18T06:35:25;4.72;;;2.90;;
7783;SDS011;19359;51.402;6.778;2022-12-18T06:37:52;6.47;;;4.32;;
7783;SDS011;19359;51.402;6.778;2022-12-18T06:40:18;5.97;;;4.75;;
7783;SDS011;19359;51.402;6.778;2022-12-18T06:42:45;6.13;;;4.32;;
7783;SDS011;19359;51.402;6.778;2022-12-18T06:45:12;7.50;;;4.75;;
7783;SDS011;19359;51.402;6.778;2022-12-18T06:47:42;8.38;;;3.65;;
7783;SDS011;19359;51.402;6.778;2022-12-18T06:50:10;5.97;;;4.25;;
7783;SDS011;19359;51.402;6.778;2022-12-18T06:52:38;5.65;;;4.13;;
7783;SDS011;19359;51.402;6.778;2022-12-18T06:55:05;9.32;;;4.13;;
7783;SDS011;19359;51.402;6.778;2022-12-18T06:57:33;5.90;;;4.05;;
7783;SDS011;19359;51.402;6.778;2022-12-18T07:00:00;10.57;;;4.65;;
7783;SDS011;19359;51.402;6.778;2022-12-18T07:02:27;6.60;;;3.15;;
7783;SDS011;19359;51.402;6.778;2022-12-18T07:04:54;7.65;;;3.58;;
7783;SDS011;19359;51.402;6.778;2022-12-18T07:07:22;3.72;;;3.22;;
7783;SDS011;19359;51.402;6.778;2022-12-18T07:09:49;12.57;;;4.10;;
7783;SDS011;19359;51.402;6.778;2022-12-18T07:12:16;8.90;;;3.67;;
7783;SDS011;19359;51.402;6.778;2022-12-18T07:14:43;3.72;;;2.78;;
7783;SDS011;19359;51.402;6.778;2022-12-18T07:17:10;4.32;;;3.33;;
7783;SDS011;19359;51.402;6.778;2022-12-18T07:19:37;5.65;;;3.60;;
7783;SDS011;19359;51.402;6.778;2022-12-18T07:22:03;4.50;;;2.90;;
7783;SDS011;19359;51.402;6.778;2022-12-18T07:24:33;5.88;;;3.70;;
7783;SDS011;19359;51.402;6.778;2022-12-18T07:27:00;6.97;;;3.35;;
7783;SDS011;19359;51.402;6.778;2022-12-18T07:29:26;5.90;;;2.92;;
7783;SDS011;19359;51.402;6.778;2022-12-18T07:31:53;6.70;;;2.95;;
7783;SDS011;19359;51.402;6.778;2022-12-18T07:34:20;6.18;;;3.50;;
7783;SDS011;19359;51.402;6.778;2022-12-18T07:36:47;3.75;;;3.30;;
7783;SDS011;19359;51.402;6.778;2022-12-18T07:39:13;6.60;;;3.88;;
7783;SDS011;19359;51.402;6.778;2022-12-18T07:41:42;8.43;;;3.55;;
7783;SDS011;19359;51.402;6.778;2022-12-18T07:44:11;4.57;;;3.47;;
7783;SDS011;19359;51.402;6.778;2022-12-18T07:46:38;6.38;;;4.40;;
7783;SDS011;19359;51.402;6.778;2022-12-18T07:49:04;6.57;;;3.60;;
7783;SDS011;19359;51.402;6.778;2022-12-18T07:51:31;5.82;;;4.47;;
7783;SDS011;19359;51.402;6.778;2022-12-18T07:53:58;8.57;;;3.40;;
7783;SDS011;19359;51.402;6.778;2022-12-18T07:56:25;6.43;;;4.40;;
7783;SDS011;19359;51.402;6.778;2022-12-18T07:58:53;8.05;;;4.15;;
7783;SDS011;19359;51.402;6.778;2022-12-18T08:01:19;5.18;;;3.45;;
7783;SDS011;19359;51.402;6.778;2022-12-18T08:03:47;10.05;;;4.15;;
7783;SDS011;19359;51.402;6.778;2022-12-18T08:06:13;6.10;;;3.78;;
7783;SDS011;19359;51.402;6.778;2022-12-18T08:08:40;11.82;;;3.75;;
7783;SDS011;19359;51.402;6.778;2022-12-18T08:11:07;5.22;;;3.15;;
7783;SDS011;19359;51.402;6.778;2022-12-18T08:13:34;7.50;;;4.80;;
7783;SDS011;19359;51.402;6.778;2022-12-18T08:16:02;8.95;;;5.05;;
7783;SDS011;19359;51.402;6.778;2022-12-18T08:18:31;9.50;;;4.47;;
7783;SDS011;19359;51.402;6.778;2022-12-18T08:21:07;6.20;;;4.28;;
7783;SDS011;19359;51.402;6.778;2022-12-18T08:23:35;10.82;;;5.60;;
7783;SDS011;19359;51.402;6.778;2022-12-18T08:26:01;5.75;;;4.35;;
7783;SDS011;19359;51.402;6.778;2022-12-18T08:28:28;8.90;;;4.95;;
7783;SDS011;19359;51.402;6.778;2022-12-18T08:30:55;6.88;;;3.72;;
7783;SDS011;19359;51.402;6.778;2022-12-18T08:33:23;7.00;;;4.70;;
7783;SDS011;19359;51.402;6.778;2022-12-18T08:35:51;5.15;;;4.03;;
7783;SDS011;19359;51.402;6.778;2022-12-18T08:38:17;7.88;;;4.60;;
7783;SDS011;19359;51.402;6.778;2022-12-18T08:40:44;6.93;;;4.85;;
7783;SDS011;19359;51.402;6.778;2022-12-18T08:43:11;8.70;;;5.72;;
7783;SDS011;19359;51.402;6.778;2022-12-18T08:45:55;10.45;;;5.30;;
7783;SDS011;19359;51.402;6.778;2022-12-18T08:48:24;9.50;;;4.13;;
7783;SDS011;19359;51.402;6.778;2022-12-18T08:50:54;14.68;;;5.15;;
7783;SDS011;19359;51.402;6.778;2022-12-18T08:53:21;6.47;;;3.85;;
7783;SDS011;19359;51.402;6.778;2022-12-18T08:55:48;9.88;;;4.70;;
7783;SDS011;19359;51.402;6.778;2022-12-18T08:58:14;6.63;;;3.92;;
7783;SDS011;19359;51.402;6.778;2022-12-18T09:00:41;6.25;;;4.65;;
7783;SDS011;19359;51.402;6.778;2022-12-18T09:03:10;5.80;;;3.75;;
7783;SDS011;19359;51.402;6.778;2022-12-18T09:05:39;5.05;;;3.72;;
7783;SDS011;19359;51.402;6.778;2022-12-18T09:08:05;7.55;;;4.22;;
7783;SDS011;19359;51.402;6.778;2022-12-18T09:10:32;6.55;;;3.90;;
7783;SDS011;19359;51.402;6.778;2022-12-18T09:12:59;6.80;;;6.07;;
7783;SDS011;19359;51.402;6.778;2022-12-18T09:15:26;9.10;;;4.55;;
7783;SDS011;19359;51.402;6.778;2022-12-18T09:17:53;5.43;;;4.05;;
7783;SDS011;19359;51.402;6.778;2022-12-18T09:20:19;7.22;;;4.28;;
7783;SDS011;19359;51.402;6.778;2022-12-18T09:22:47;6.22;;;4.28;;
7783;SDS011;19359;51.402;6.778;2022-12-18T09:25:14;7.50;;;5.07;;
7783;SDS011;19359;51.402;6.778;2022-12-18T09:27:41;6.35;;;4.10;;
7783;SDS011;19359;51.402;6.778;2022-12-18T09:30:08;6.03;;;3.47;;
7783;SDS011;19359;51.402;6.778;2022-12-18T09:32:35;7.90;;;4.43;;
7783;SDS011;19359;51.402;6.778;2022-12-18T09:35:02;5.70;;;4.57;;
7783;SDS011;19359;51.402;6.778;2022-12-18T09:37:29;8.45;;;6.03;;
7783;SDS011;19359;51.402;6.778;2022-12-18T09:39:57;7.22;;;4.05;;
7783;SDS011;19359;51.402;6.778;2022-12-18T09:42:24;8.50;;;4.88;;
7783;SDS011;19359;51.402;6.778;2022-12-18T09:44:52;4.18;;;3.78;;
7783;SDS011;19359;51.402;6.778;2022-12-18T09:47:20;4.55;;;3.88;;
7783;SDS011;19359;51.402;6.778;2022-12-18T09:49:51;6.68;;;4.70;;
7783;SDS011;19359;51.402;6.778;2022-12-18T09:52:21;3.70;;;2.75;;
7783;SDS011;19359;51.402;6.778;2022-12-18T09:54:53;6.75;;;4.40;;
7783;SDS011;19359;51.402;6.778;2022-12-18T09:57:25;4.35;;;3.78;;
7783;SDS011;19359;51.402;6.778;2022-12-18T09:59:54;7.25;;;4.63;;
7783;SDS011;19359;51.402;6.778;2022-12-18T10:02:25;7.45;;;4.55;;
7783;SDS011;19359;51.402;6.778;2022-12-18T10:04:56;6.10;;;3.75;;
7783;SDS011;19359;51.402;6.778;2022-12-18T10:07:32;4.60;;;3.85;;
7783;SDS011;19359;51.402;6.778;2022-12-18T10:10:10;3.85;;;3.35;;
7783;SDS011;19359;51.402;6.778;2022-12-18T10:12:48;6.80;;;4.70;;
7783;SDS011;19359;51.402;6.778;2022-12-18T10:15:23;5.88;;;3.85;;
7783;SDS011;19359;51.402;6.778;2022-12-18T10:17:55;5.47;;;3.88;;
7783;SDS011;19359;51.402;6.778;2022-12-18T10:20:30;6.53;;;4.68;;
7783;SDS011;19359;51.402;6.778;2022-12-18T10:23:02;5.75;;;4.20;;
7783;SDS011;19359;51.402;6.778;2022-12-18T10:25:34;3.97;;;3.58;;
7783;SDS011;19359;51.402;6.778;2022-12-18T10:28:10;5.05;;;3.83;;
7783;SDS011;19359;51.402;6.778;2022-12-18T10:30:39;6.53;;;4.30;;
7783;SDS011;19359;51.402;6.778;2022-12-18T10:33:08;4.47;;;3.67;;
7783;SDS011;19359;51.402;6.778;2022-12-18T10:35:38;7.28;;;4.32;;
7783;SDS011;19359;51.402;6.778;2022-12-18T10:38:19;6.97;;;3.53;;
7783;SDS011;19359;51.402;6.778;2022-12-18T10:40:49;7.00;;;4.22;;
7783;SDS011;19359;51.402;6.778;2022-12-18T10:43:21;7.97;;;4.15;;
7783;SDS011;19359;51.402;6.778;2022-12-18T10:46:00;5.65;;;4.05;;
7783;SDS011;19359;51.402;6.778;2022-12-18T10:48:31;6.20;;;3.30;;
7783;SDS011;19359;51.402;6.778;2022-12-18T10:51:00;6.93;;;3.08;;
7783;SDS011;19359;51.402;6.778;2022-12-18T10:53:28;4.38;;;3.10;;
7783;SDS011;19359;51.402;6.778;2022-12-18T10:55:58;7.93;;;4.05;;
7783;SDS011;19359;51.402;6.778;2022-12-18T10:58:28;5.75;;;3.22;;
7783;SDS011;19359;51.402;6.778;2022-12-18T11:01:04;4.75;;;3.88;;
7783;SDS011;19359;51.402;6.778;2022-12-18T11:03:34;4.95;;;4.03;;
7783;SDS011;19359;51.402;6.778;2022-12-18T11:06:03;13.02;;;3.97;;
7783;SDS011;19359;51.402;6.778;2022-12-18T11:08:32;6.68;;;4.35;;
7783;SDS011;19359;51.402;6.778;2022-12-18T11:10:59;5.93;;;3.50;;
7783;SDS011;19359;51.402;6.778;2022-12-18T11:13:27;7.35;;;4.97;;
7783;SDS011;19359;51.402;6.778;2022-12-18T11:15:56;4.13;;;3.47;;
7783;SDS011;19359;51.402;6.778;2022-12-18T11:18:25;5.45;;;3.58;;
7783;SDS011;19359;51.402;6.778;2022-12-18T11:20:55;4.32;;;3.92;;
7783;SDS011;19359;51.402;6.778;2022-12-18T11:23:23;6.47;;;4.47;;
7783;SDS011;19359;51.402;6.778;2022-12-18T11:25:52;7.63;;;5.35;;
7783;SDS011;19359;51.402;6.778;2022-12-18T11:28:29;5.60;;;3.60;;
7783;SDS011;19359;51.402;6.778;2022-12-18T11:31:09;5.25;;;4.32;;
7783;SDS011;19359;51.402;6.778;2022-12-18T11:33:51;4.80;;;3.25;;
7783;SDS011;19359;51.402;6.778;2022-12-18T11:36:22;4.35;;;3.63;;
7783;SDS011;19359;51.402;6.778;2022-12-18T11:38:50;6.25;;;3.30;;
7783;SDS011;19359;51.402;6.778;2022-12-18T11:41:21;6.15;;;3.65;;
7783;SDS011;19359;51.402;6.778;2022-12-18T11:44:14;4.90;;;3.88;;
7783;SDS011;19359;51.402;6.778;2022-12-18T11:46:47;3.55;;;3.22;;
7783;SDS011;19359;51.402;6.778;2022-12-18T11:49:18;5.70;;;3.83;;
7783;SDS011;19359;51.402;6.778;2022-12-18T11:51:50;4.47;;;3.25;;
7783;SDS011;19359;51.402;6.778;2022-12-18T11:54:21;6.80;;;3.88;;
7783;SDS011;19359;51.402;6.778;2022-12-18T11:56:49;5.38;;;4.32;;
7783;SDS011;19359;51.402;6.778;2022-12-18T11:59:23;17.00;;;4.57;;
7783;SDS011;19359;51.402;6.778;2022-12-18T12:02:00;7.35;;;4.57;;
7783;SDS011;19359;51.402;6.778;2022-12-18T12:04:46;6.20;;;3.10;;
7783;SDS011;19359;51.402;6.778;2022-12-18T12:07:23;3.35;;;3.05;;
7783;SDS011;19359;51.402;6.778;2022-12-18T12:10:01;5.38;;;4.28;;
7783;SDS011;19359;51.402;6.778;2022-12-18T12:12:39;7.07;;;4.38;;
7783;SDS011;19359;51.402;6.778;2022-12-18T12:15:25;7.18;;;3.38;;
7783;SDS011;19359;51.402;6.778;2022-12-18T12:18:01;6.55;;;3.60;;
7783;SDS011;19359;51.402;6.778;2022-12-18T12:20:37;7.10;;;4.13;;
7783;SDS011;19359;51.402;6.778;2022-12-18T12:23:14;7.90;;;4.03;;
7783;SDS011;19359;51.402;6.778;2022-12-18T12:25:49;4.78;;;4.00;;
7783;SDS011;19359;51.402;6.778;2022-12-18T12:28:32;10.82;;;5.22;;
7783;SDS011;19359;51.402;6.778;2022-12-18T12:31:14;17.98;;;7.90;;
7783;SDS011;19359;51.402;6.778;2022-12-18T12:33:51;10.68;;;5.80;;
7783;SDS011;19359;51.402;6.778;2022-12-18T12:36:26;10.45;;;5.63;;
7783;SDS011;19359;51.402;6.778;2022-12-18T12:39:01;9.25;;;4.57;;
7783;SDS011;19359;51.402;6.778;2022-12-18T12:41:33;9.45;;;6.03;;
7783;SDS011;19359;51.402;6.778;2022-12-18T12:44:19;10.70;;;6.10;;
7783;SDS011;19359;51.402;6.778;2022-12-18T12:46:51;5.65;;;4.28;;
7783;SDS011;19359;51.402;6.778;2022-12-18T12:49:22;5.82;;;4.97;;
7783;SDS011;19359;51.402;6.778;2022-12-18T12:51:55;8.52;;;4.93;;
7783;SDS011;19359;51.402;6.778;2022-12-18T12:54:26;6.80;;;4.88;;
7783;SDS011;19359;51.402;6.778;2022-12-18T12:56:54;9.73;;;4.55;;
7783;SDS011;19359;51.402;6.778;2022-12-18T12:59:28;4.75;;;3.95;;
7783;SDS011;19359;51.402;6.778;2022-12-18T13:02:09;6.32;;;4.97;;
7783;SDS011;19359;51.402;6.778;2022-12-18T13:04:45;6.43;;;3.92;;
7783;SDS011;19359;51.402;6.778;2022-12-18T13:07:18;7.53;;;5.65;;
7783;SDS011;19359;51.402;6.778;2022-12-18T13:12:52;10.35;;;6.15;;
7783;SDS011;19359;51.402;6.778;2022-12-18T13:15:22;7.43;;;5.38;;
7783;SDS011;19359;51.402;6.778;2022-12-18T13:18:04;9.77;;;6.35;;
7783;SDS011;19359;51.402;6.778;2022-12-18T13:20:37;10.38;;;5.97;;
7783;SDS011;19359;51.402;6.778;2022-12-18T13:23:19;8.20;;;4.47;;
7783;SDS011;19359;51.402;6.778;2022-12-18T13:25:52;10.93;;;5.40;;
7783;SDS011;19359;51.402;6.778;2022-12-18T13:28:20;10.10;;;5.72;;
7783;SDS011;19359;51.402;6.778;2022-12-18T13:30:50;10.18;;;6.80;;
7783;SDS011;19359;51.402;6.778;2022-12-18T13:36:29;8.27;;;5.72;;
7783;SDS011;19359;51.402;6.778;2022-12-18T13:39:10;8.75;;;6.30;;
7783;SDS011;19359;51.402;6.778;2022-12-18T13:41:49;10.07;;;5.53;;
7783;SDS011;19359;51.402;6.778;2022-12-18T13:44:22;12.65;;;6.40;;
7783;SDS011;19359;51.402;6.778;2022-12-18T13:46:53;11.73;;;7.70;;
7783;SDS011;19359;51.402;6.778;2022-12-18T13:49:22;14.05;;;6.75;;
7783;SDS011;19359;51.402;6.778;2022-12-18T13:51:52;14.90;;;6.65;;
7783;SDS011;19359;51.402;6.778;2022-12-18T13:54:21;7.90;;;6.80;;
7783;SDS011;19359;51.402;6.778;2022-12-18T13:56:53;11.65;;;6.57;;
7783;SDS011;19359;51.402;6.778;2022-12-18T13:59:21;13.90;;;6.95;;
7783;SDS011;19359;51.402;6.778;2022-12-18T14:01:50;11.90;;;6.10;;
7783;SDS011;19359;51.402;6.778;2022-12-18T14:04:20;10.38;;;6.43;;
7783;SDS011;19359;51.402;6.778;2022-12-18T14:06:52;13.85;;;7.80;;
7783;SDS011;19359;51.402;6.778;2022-12-18T14:09:23;11.07;;;7.15;;
7783;SDS011;19359;51.402;6.778;2022-12-18T14:11:52;9.13;;;5.53;;
7783;SDS011;19359;51.402;6.778;2022-12-18T14:14:42;10.25;;;6.07;;
7783;SDS011;19359;51.402;6.778;2022-12-18T14:17:12;14.32;;;7.15;;
7783;SDS011;19359;51.402;6.778;2022-12-18T14:19:45;15.45;;;7.25;;
7783;SDS011;19359;51.402;6.778;2022-12-18T14:22:15;10.75;;;6.53;;
7783;SDS011;19359;51.402;6.778;2022-12-18T14:24:43;15.27;;;8.05;;
7783;SDS011;19359;51.402;6.778;2022-12-18T14:27:19;8.00;;;6.45;;
7783;SDS011;19359;51.402;6.778;2022-12-18T14:29:48;11.82;;;6.68;;
7783;SDS011;19359;51.402;6.778;2022-12-18T14:32:16;10.57;;;6.93;;
7783;SDS011;19359;51.402;6.778;2022-12-18T14:34:46;14.75;;;8.15;;
7783;SDS011;19359;51.402;6.778;2022-12-18T14:37:14;13.18;;;6.97;;
7783;SDS011;19359;51.402;6.778;2022-12-18T14:39:51;11.57;;;7.65;;
7783;SDS011;19359;51.402;6.778;2022-12-18T14:42:23;13.63;;;7.80;;
7783;SDS011;19359;51.402;6.778;2022-12-18T14:47:52;14.55;;;8.52;;
7783;SDS011;19359;51.402;6.778;2022-12-18T14:50:20;9.80;;;6.70;;
7783;SDS011;19359;51.402;6.778;2022-12-18T14:52:47;12.02;;;6.65;;
7783;SDS011;19359;51.402;6.778;2022-12-18T14:55:14;7.78;;;6.47;;
7783;SDS011;19359;51.402;6.778;2022-12-18T14:57:42;13.30;;;8.23;;
7783;SDS011;19359;51.402;6.778;2022-12-18T15:00:14;9.68;;;6.47;;
7783;SDS011;19359;51.402;6.778;2022-12-18T15:02:43;11.70;;;7.05;;
7783;SDS011;19359;51.402;6.778;2022-12-18T15:05:16;13.65;;;8.15;;
7783;SDS011;19359;51.402;6.778;2022-12-18T15:07:46;10.13;;;7.22;;
7783;SDS011;19359;51.402;6.778;2022-12-18T15:10:14;11.32;;;6.07;;
7783;SDS011;19359;51.402;6.778;2022-12-18T15:12:43;16.75;;;8.73;;
7783;SDS011;19359;51.402;6.778;2022-12-18T15:18:14;8.45;;;6.35;;
7783;SDS011;19359;51.402;6.778;2022-12-18T15:20:43;14.80;;;7.47;;
7783;SDS011;19359;51.402;6.778;2022-12-18T15:23:16;15.20;;;7.25;;
7783;SDS011;19359;51.402;6.778;2022-12-18T15:25:44;13.80;;;8.02;;
7783;SDS011;19359;51.402;6.778;2022-12-18T15:28:17;14.68;;;7.00;;
7783;SDS011;19359;51.402;6.778;2022-12-18T15:31:02;14.40;;;8.45;;
7783;SDS011;19359;51.402;6.778;2022-12-18T15:33:31;11.15;;;6.90;;